sensor_id;sensor_type;location;lat;lon;timestamp;pressure;altitude;pressure_sealevel;temperature;humidity
75972;BME280;64651;47.540;19.088;2023-05-07T00:00:28;100449.25;;;15.46;79.87
75972;BME280;64651;47.540;19.088;2023-05-07T00:05:30;100452.38;;;15.17;81.13
75972;BME280;64651;47.540;19.088;2023-05-07T00:10:32;100443.03;;;14.99;82.46
75972;BME280;64651;47.540;19.088;2023-05-07T00:15:34;100452.56;;;15.07;82.48
75972;BME280;64651;47.540;19.088;2023-05-07T00:20:36;100447.53;;;14.95;82.69
75972;BME280;64651;47.540;19.088;2023-05-07T00:25:39;100451.63;;;14.84;83.18
75972;BME280;64651;47.540;19.088;2023-05-07T00:30:41;100449.97;;;14.83;83.61
75972;BME280;64651;47.540;19.088;2023-05-07T00:35:43;100452.56;;;14.93;84.04
75972;BME280;64651;47.540;19.088;2023-05-07T00:40:45;100461.47;;;14.90;84.45
75972;BME280;64651;47.540;19.088;2023-05-07T00:45:48;100457.47;;;14.69;85.71
75972;BME280;64651;47.540;19.088;2023-05-07T00:50:51;100465.41;;;14.43;86.96
75972;BME280;64651;47.540;19.088;2023-05-07T00:55:53;100465.62;;;14.28;88.15
75972;BME280;64651;47.540;19.088;2023-05-07T01:00:56;100468.63;;;14.32;88.58
75972;BME280;64651;47.540;19.088;2023-05-07T01:05:59;100468.91;;;14.49;88.39
75972;BME280;64651;47.540;19.088;2023-05-07T01:11:04;100460.25;;;14.69;87.73
75972;BME280;64651;47.540;19.088;2023-05-07T01:16:06;100461.78;;;14.89;86.99
75972;BME280;64651;47.540;19.088;2023-05-07T01:21:11;100460.78;;;14.98;86.68
75972;BME280;64651;47.540;19.088;2023-05-07T01:26:13;100481.72;;;15.05;86.15
75972;BME280;64651;47.540;19.088;2023-05-07T01:31:16;100481.19;;;14.89;86.36
75972;BME280;64651;47.540;19.088;2023-05-07T01:36:20;100478.56;;;14.65;87.47
75972;BME280;64651;47.540;19.088;2023-05-07T01:41:25;100485.31;;;14.45;88.84
75972;BME280;64651;47.540;19.088;2023-05-07T01:46:28;100482.94;;;14.20;90.14
75972;BME280;64651;47.540;19.088;2023-05-07T01:51:32;100481.03;;;14.02;91.30
75972;BME280;64651;47.540;19.088;2023-05-07T01:56:35;100474.97;;;13.81;92.41
75972;BME280;64651;47.540;19.088;2023-05-07T02:01:37;100473.19;;;13.71;93.33
75972;BME280;64651;47.540;19.088;2023-05-07T02:06:39;100466.91;;;13.66;94.01
75972;BME280;64651;47.540;19.088;2023-05-07T02:11:42;100452.91;;;13.57;94.72
75972;BME280;64651;47.540;19.088;2023-05-07T02:16:44;100450.34;;;13.61;95.20
75972;BME280;64651;47.540;19.088;2023-05-07T02:21:46;100459.16;;;13.44;95.48
75972;BME280;64651;47.540;19.088;2023-05-07T02:26:49;100463.78;;;13.30;95.41
75972;BME280;64651;47.540;19.088;2023-05-07T02:31:51;100456.50;;;13.15;95.73
75972;BME280;64651;47.540;19.088;2023-05-07T02:36:54;100454.28;;;13.17;95.74
75972;BME280;64651;47.540;19.088;2023-05-07T02:41:57;100448.00;;;13.07;96.01
75972;BME280;64651;47.540;19.088;2023-05-07T02:46:59;100456.72;;;12.95;96.30
75972;BME280;64651;47.540;19.088;2023-05-07T02:52:04;100452.97;;;12.86;96.57
75972;BME280;64651;47.540;19.088;2023-05-07T02:57:06;100465.62;;;12.87;96.71
75972;BME280;64651;47.540;19.088;2023-05-07T03:02:09;100469.75;;;12.89;96.64
75972;BME280;64651;47.540;19.088;2023-05-07T03:07:11;100454.22;;;12.98;95.99
75972;BME280;64651;47.540;19.088;2023-05-07T03:12:13;100456.63;;;13.05;95.55
75972;BME280;64651;47.540;19.088;2023-05-07T03:17:16;100461.66;;;12.98;95.33
75972;BME280;64651;47.540;19.088;2023-05-07T03:22:18;100453.31;;;13.03;95.21
75972;BME280;64651;47.540;19.088;2023-05-07T03:27:20;100459.06;;;13.07;94.94
75972;BME280;64651;47.540;19.088;2023-05-07T03:32:22;100470.59;;;13.37;93.53
75972;BME280;64651;47.540;19.088;2023-05-07T03:37:25;100468.69;;;13.57;91.78
75972;BME280;64651;47.540;19.088;2023-05-07T03:42:28;100469.34;;;13.67;90.68
75972;BME280;64651;47.540;19.088;2023-05-07T03:47:30;100469.59;;;13.90;89.36
75972;BME280;64651;47.540;19.088;2023-05-07T03:52:33;100467.03;;;13.93;88.75
75972;BME280;64651;47.540;19.088;2023-05-07T03:57:35;100463.38;;;13.79;88.90
75972;BME280;64651;47.540;19.088;2023-05-07T04:02:37;100467.78;;;13.61;89.38
75972;BME280;64651;47.540;19.088;2023-05-07T04:07:39;100471.97;;;13.59;89.63
75972;BME280;64651;47.540;19.088;2023-05-07T04:12:41;100478.09;;;13.56;89.82
75972;BME280;64651;47.540;19.088;2023-05-07T04:17:44;100483.41;;;13.52;90.18
75972;BME280;64651;47.540;19.088;2023-05-07T04:22:46;100493.19;;;13.63;90.17
75972;BME280;64651;47.540;19.088;2023-05-07T04:27:48;100496.16;;;13.67;89.97
75972;BME280;64651;47.540;19.088;2023-05-07T04:32:51;100495.97;;;13.63;89.88
75972;BME280;64651;47.540;19.088;2023-05-07T04:37:54;100504.47;;;13.67;90.00
75972;BME280;64651;47.540;19.088;2023-05-07T04:42:56;100499.19;;;13.89;89.55
75972;BME280;64651;47.540;19.088;2023-05-07T04:47:59;100503.88;;;14.26;88.27
75972;BME280;64651;47.540;19.088;2023-05-07T04:53:01;100503.41;;;14.56;86.84
75972;BME280;64651;47.540;19.088;2023-05-07T04:58:06;100503.94;;;14.72;85.64
75972;BME280;64651;47.540;19.088;2023-05-07T05:03:08;100504.28;;;14.98;84.50
75972;BME280;64651;47.540;19.088;2023-05-07T05:08:11;100514.38;;;15.35;83.07
75972;BME280;64651;47.540;19.088;2023-05-07T05:13:13;100503.28;;;15.49;82.14
75972;BME280;64651;47.540;19.088;2023-05-07T05:18:15;100517.22;;;15.71;81.32
75972;BME280;64651;47.540;19.088;2023-05-07T05:23:18;100513.31;;;15.86;80.74
75972;BME280;64651;47.540;19.088;2023-05-07T05:28:20;100525.28;;;16.08;80.01
75972;BME280;64651;47.540;19.088;2023-05-07T05:33:23;100526.75;;;16.28;78.97
75972;BME280;64651;47.540;19.088;2023-05-07T05:38:25;100532.34;;;16.14;79.29
75972;BME280;64651;47.540;19.088;2023-05-07T05:43:27;100520.47;;;15.87;80.08
75972;BME280;64651;47.540;19.088;2023-05-07T05:48:30;100516.59;;;15.74;80.25
75972;BME280;64651;47.540;19.088;2023-05-07T05:53:32;100521.63;;;15.86;80.22
75972;BME280;64651;47.540;19.088;2023-05-07T05:58:37;100513.91;;;15.96;79.42
75972;BME280;64651;47.540;19.088;2023-05-07T06:03:40;100510.56;;;16.08;78.76
75972;BME280;64651;47.540;19.088;2023-05-07T06:08:42;100520.38;;;16.28;77.83
75972;BME280;64651;47.540;19.088;2023-05-07T06:13:44;100517.91;;;16.48;77.18
75972;BME280;64651;47.540;19.088;2023-05-07T06:18:46;100505.78;;;16.67;76.69
75972;BME280;64651;47.540;19.088;2023-05-07T06:23:48;100503.00;;;16.89;75.58
75972;BME280;64651;47.540;19.088;2023-05-07T06:28:52;100515.97;;;17.02;74.70
75972;BME280;64651;47.540;19.088;2023-05-07T06:33:55;100523.75;;;17.22;74.12
75972;BME280;64651;47.540;19.088;2023-05-07T06:38:57;100513.69;;;17.43;73.53
75972;BME280;64651;47.540;19.088;2023-05-07T06:43:59;100519.22;;;17.83;72.04
75972;BME280;64651;47.540;19.088;2023-05-07T06:49:01;100519.91;;;18.40;69.87
75972;BME280;64651;47.540;19.088;2023-05-07T06:54:04;100506.25;;;18.73;68.04
75972;BME280;64651;47.540;19.088;2023-05-07T06:59:07;100515.31;;;19.17;66.59
75972;BME280;64651;47.540;19.088;2023-05-07T07:04:09;100510.66;;;19.67;64.00
75972;BME280;64651;47.540;19.088;2023-05-07T07:09:11;100519.72;;;20.68;62.04
75972;BME280;64651;47.540;19.088;2023-05-07T07:14:14;100512.81;;;20.98;60.74
75972;BME280;64651;47.540;19.088;2023-05-07T07:19:16;100517.06;;;22.02;57.20
75972;BME280;64651;47.540;19.088;2023-05-07T07:24:18;100511.28;;;22.62;54.09
75972;BME280;64651;47.540;19.088;2023-05-07T07:29:23;100517.91;;;22.70;53.95
75972;BME280;64651;47.540;19.088;2023-05-07T07:34:27;100523.59;;;22.86;53.81
75972;BME280;64651;47.540;19.088;2023-05-07T07:39:29;100526.72;;;23.28;51.23
75972;BME280;64651;47.540;19.088;2023-05-07T07:44:32;100536.84;;;23.32;49.85
75972;BME280;64651;47.540;19.088;2023-05-07T07:49:34;100529.31;;;23.83;50.30
75972;BME280;64651;47.540;19.088;2023-05-07T07:54:37;100533.94;;;24.46;48.02
75972;BME280;64651;47.540;19.088;2023-05-07T07:59:40;100536.19;;;25.17;46.49
75972;BME280;64651;47.540;19.088;2023-05-07T08:04:45;100538.00;;;26.01;44.52
75972;BME280;64651;47.540;19.088;2023-05-07T08:09:48;100544.50;;;25.78;45.00
75972;BME280;64651;47.540;19.088;2023-05-07T08:14:50;100537.91;;;24.83;46.38
75972;BME280;64651;47.540;19.088;2023-05-07T08:19:52;100543.50;;;24.80;46.44
75972;BME280;64651;47.540;19.088;2023-05-07T08:25:04;100540.97;;;24.36;46.20
75972;BME280;64651;47.540;19.088;2023-05-07T08:30:08;100541.47;;;23.87;46.58
75972;BME280;64651;47.540;19.088;2023-05-07T08:35:10;100528.16;;;23.84;46.85
75972;BME280;64651;47.540;19.088;2023-05-07T08:40:12;100526.94;;;22.91;48.25
75972;BME280;64651;47.540;19.088;2023-05-07T08:45:16;100523.81;;;22.53;48.87
75972;BME280;64651;47.540;19.088;2023-05-07T08:50:20;100525.75;;;23.52;47.24
75972;BME280;64651;47.540;19.088;2023-05-07T08:55:24;100520.00;;;24.72;43.03
75972;BME280;64651;47.540;19.088;2023-05-07T09:00:26;100520.44;;;25.13;41.99
75972;BME280;64651;47.540;19.088;2023-05-07T09:05:28;100528.47;;;24.53;42.23
75972;BME280;64651;47.540;19.088;2023-05-07T09:10:33;100533.41;;;24.40;42.18
75972;BME280;64651;47.540;19.088;2023-05-07T09:15:35;100523.66;;;24.53;40.32
75972;BME280;64651;47.540;19.088;2023-05-07T09:20:37;100520.47;;;27.11;35.27
75972;BME280;64651;47.540;19.088;2023-05-07T09:25:40;100515.25;;;29.83;31.06
75972;BME280;64651;47.540;19.088;2023-05-07T09:30:42;100518.50;;;29.15;30.62
75972;BME280;64651;47.540;19.088;2023-05-07T09:35:44;100512.84;;;30.00;30.06
75972;BME280;64651;47.540;19.088;2023-05-07T09:40:47;100502.38;;;31.46;27.53
75972;BME280;64651;47.540;19.088;2023-05-07T09:45:50;100513.66;;;29.47;29.24
75972;BME280;64651;47.540;19.088;2023-05-07T09:50:55;100502.84;;;31.41;28.65
75972;BME280;64651;47.540;19.088;2023-05-07T09:56:02;100503.09;;;31.57;29.08
75972;BME280;64651;47.540;19.088;2023-05-07T10:01:06;100500.69;;;31.97;29.00
75972;BME280;64651;47.540;19.088;2023-05-07T10:06:09;100518.13;;;29.37;32.05
75972;BME280;64651;47.540;19.088;2023-05-07T10:11:12;100515.06;;;27.39;34.33
75972;BME280;64651;47.540;19.088;2023-05-07T10:16:17;100516.84;;;27.11;34.83
75972;BME280;64651;47.540;19.088;2023-05-07T10:21:22;100517.66;;;26.78;35.55
75972;BME280;64651;47.540;19.088;2023-05-07T10:26:27;100523.03;;;25.48;38.60
75972;BME280;64651;47.540;19.088;2023-05-07T10:31:37;100518.69;;;24.27;40.58
75972;BME280;64651;47.540;19.088;2023-05-07T10:36:46;100514.91;;;24.58;39.23
75972;BME280;64651;47.540;19.088;2023-05-07T10:41:49;100506.53;;;26.25;37.78
75972;BME280;64651;47.540;19.088;2023-05-07T10:47:08;100499.22;;;27.28;33.08
75972;BME280;64651;47.540;19.088;2023-05-07T10:52:15;100506.13;;;27.81;32.91
75972;BME280;64651;47.540;19.088;2023-05-07T10:57:34;100498.47;;;26.57;35.52
75972;BME280;64651;47.540;19.088;2023-05-07T11:08:02;100501.00;;;30.22;31.76
75972;BME280;64651;47.540;19.088;2023-05-07T11:13:05;100498.88;;;33.08;27.35
75972;BME280;64651;47.540;19.088;2023-05-07T11:18:09;100486.69;;;33.34;25.99
75972;BME280;64651;47.540;19.088;2023-05-07T11:28:38;100488.22;;;34.68;23.94
75972;BME280;64651;47.540;19.088;2023-05-07T11:33:40;100479.88;;;35.62;22.72
75972;BME280;64651;47.540;19.088;2023-05-07T11:38:43;100471.88;;;36.43;21.86
75972;BME280;64651;47.540;19.088;2023-05-07T11:43:56;100481.41;;;34.82;23.93
75972;BME280;64651;47.540;19.088;2023-05-07T11:49:00;100454.37;;;35.19;23.18
75972;BME280;64651;47.540;19.088;2023-05-07T11:54:06;100464.16;;;35.37;21.81
75972;BME280;64651;47.540;19.088;2023-05-07T11:59:18;100459.00;;;35.77;21.87
75972;BME280;64651;47.540;19.088;2023-05-07T12:04:20;100451.69;;;35.44;21.67
75972;BME280;64651;47.540;19.088;2023-05-07T12:09:23;100457.84;;;36.87;20.11
75972;BME280;64651;47.540;19.088;2023-05-07T12:14:28;100447.97;;;38.73;18.45
75972;BME280;64651;47.540;19.088;2023-05-07T12:19:31;100443.97;;;36.85;20.13
75972;BME280;64651;47.540;19.088;2023-05-07T12:24:47;100455.38;;;33.54;23.79
75972;BME280;64651;47.540;19.088;2023-05-07T12:29:50;100450.75;;;35.63;21.88
75972;BME280;64651;47.540;19.088;2023-05-07T12:34:53;100441.66;;;35.52;21.48
75972;BME280;64651;47.540;19.088;2023-05-07T12:40:09;100446.81;;;35.90;20.98
75972;BME280;64651;47.540;19.088;2023-05-07T12:45:14;100439.31;;;34.82;21.82
75972;BME280;64651;47.540;19.088;2023-05-07T12:50:18;100441.19;;;33.94;23.27
75972;BME280;64651;47.540;19.088;2023-05-07T12:55:22;100434.97;;;30.88;26.78
75972;BME280;64651;47.540;19.088;2023-05-07T13:00:35;100452.84;;;28.81;30.27
75972;BME280;64651;47.540;19.088;2023-05-07T13:05:37;100439.50;;;28.92;30.26
75972;BME280;64651;47.540;19.088;2023-05-07T13:10:39;100445.62;;;29.15;30.39
75972;BME280;64651;47.540;19.088;2023-05-07T13:15:41;100428.22;;;30.68;28.32
75972;BME280;64651;47.540;19.088;2023-05-07T13:20:43;100425.16;;;31.89;25.59
75972;BME280;64651;47.540;19.088;2023-05-07T13:25:46;100409.28;;;32.52;24.94
75972;BME280;64651;47.540;19.088;2023-05-07T13:30:48;100419.97;;;30.84;27.80
75972;BME280;64651;47.540;19.088;2023-05-07T13:35:51;100423.63;;;30.84;27.18
75972;BME280;64651;47.540;19.088;2023-05-07T13:40:53;100415.31;;;30.45;28.27
75972;BME280;64651;47.540;19.088;2023-05-07T13:45:55;100409.78;;;32.16;25.91
75972;BME280;64651;47.540;19.088;2023-05-07T13:50:57;100407.84;;;30.80;26.85
75972;BME280;64651;47.540;19.088;2023-05-07T13:56:00;100402.00;;;31.46;26.16
75972;BME280;64651;47.540;19.088;2023-05-07T14:01:02;100404.00;;;30.42;26.96
75972;BME280;64651;47.540;19.088;2023-05-07T14:06:04;100400.19;;;29.82;28.45
75972;BME280;64651;47.540;19.088;2023-05-07T14:11:06;100405.47;;;29.70;28.77
75972;BME280;64651;47.540;19.088;2023-05-07T14:16:09;100403.06;;;29.68;27.45
75972;BME280;64651;47.540;19.088;2023-05-07T14:21:12;100395.28;;;29.97;27.49
75972;BME280;64651;47.540;19.088;2023-05-07T14:26:15;100393.69;;;29.82;27.81
75972;BME280;64651;47.540;19.088;2023-05-07T14:31:17;100400.19;;;29.82;27.80
75972;BME280;64651;47.540;19.088;2023-05-07T14:36:20;100403.00;;;30.73;26.10
75972;BME280;64651;47.540;19.088;2023-05-07T14:41:23;100409.19;;;28.96;28.42
75972;BME280;64651;47.540;19.088;2023-05-07T14:46:25;100414.03;;;29.06;28.77
75972;BME280;64651;47.540;19.088;2023-05-07T14:51:27;100414.03;;;29.34;28.71
75972;BME280;64651;47.540;19.088;2023-05-07T14:56:30;100419.69;;;28.99;29.19
75972;BME280;64651;47.540;19.088;2023-05-07T15:01:34;100421.31;;;29.21;29.21
75972;BME280;64651;47.540;19.088;2023-05-07T15:06:37;100428.31;;;27.47;32.26
75972;BME280;64651;47.540;19.088;2023-05-07T15:11:39;100436.28;;;27.85;31.76
75972;BME280;64651;47.540;19.088;2023-05-07T15:16:41;100428.31;;;27.43;32.88
75972;BME280;64651;47.540;19.088;2023-05-07T15:21:44;100419.53;;;27.04;32.91
75972;BME280;64651;47.540;19.088;2023-05-07T15:26:46;100419.44;;;26.57;34.10
75972;BME280;64651;47.540;19.088;2023-05-07T15:31:52;100415.94;;;27.11;32.94
75972;BME280;64651;47.540;19.088;2023-05-07T15:36:55;100418.47;;;26.42;34.50
75972;BME280;64651;47.540;19.088;2023-05-07T15:41:58;100412.72;;;26.72;33.79
75972;BME280;64651;47.540;19.088;2023-05-07T15:47:01;100415.34;;;26.51;33.47
75972;BME280;64651;47.540;19.088;2023-05-07T15:52:03;100427.97;;;25.67;34.66
75972;BME280;64651;47.540;19.088;2023-05-07T15:57:06;100430.56;;;25.04;35.13
75972;BME280;64651;47.540;19.088;2023-05-07T16:02:08;100426.38;;;24.52;35.65
75972;BME280;64651;47.540;19.088;2023-05-07T16:07:11;100421.06;;;24.28;35.98
75972;BME280;64651;47.540;19.088;2023-05-07T16:12:14;100424.97;;;24.62;34.82
75972;BME280;64651;47.540;19.088;2023-05-07T16:17:16;100427.09;;;23.72;36.35
75972;BME280;64651;47.540;19.088;2023-05-07T16:22:19;100433.22;;;23.59;37.30
75972;BME280;64651;47.540;19.088;2023-05-07T16:27:21;100422.47;;;23.14;38.55
75972;BME280;64651;47.540;19.088;2023-05-07T16:32:23;100420.09;;;22.69;38.51
75972;BME280;64651;47.540;19.088;2023-05-07T16:37:25;100428.88;;;22.39;38.57
75972;BME280;64651;47.540;19.088;2023-05-07T16:42:27;100419.97;;;22.21;39.06
75972;BME280;64651;47.540;19.088;2023-05-07T16:47:30;100417.03;;;21.90;39.31
75972;BME280;64651;47.540;19.088;2023-05-07T16:52:33;100426.22;;;21.63;40.12
75972;BME280;64651;47.540;19.088;2023-05-07T16:57:35;100427.41;;;21.50;40.78
75972;BME280;64651;47.540;19.088;2023-05-07T17:02:37;100430.69;;;21.27;41.28
75972;BME280;64651;47.540;19.088;2023-05-07T17:07:41;100432.31;;;21.04;42.04
75972;BME280;64651;47.540;19.088;2023-05-07T17:12:43;100447.03;;;20.68;42.59
75972;BME280;64651;47.540;19.088;2023-05-07T17:17:46;100448.88;;;20.31;43.22
75972;BME280;64651;47.540;19.088;2023-05-07T17:22:48;100452.91;;;20.01;43.73
75972;BME280;64651;47.540;19.088;2023-05-07T17:27:50;100448.38;;;19.75;44.33
75972;BME280;64651;47.540;19.088;2023-05-07T17:32:53;100457.59;;;19.47;44.61
75972;BME280;64651;47.540;19.088;2023-05-07T17:38:10;100454.03;;;19.29;44.93
75972;BME280;64651;47.540;19.088;2023-05-07T17:43:12;100462.09;;;18.92;45.71
75972;BME280;64651;47.540;19.088;2023-05-07T17:48:14;100474.50;;;18.66;46.65
75972;BME280;64651;47.540;19.088;2023-05-07T17:53:18;100477.72;;;18.76;46.64
75972;BME280;64651;47.540;19.088;2023-05-07T17:58:20;100482.38;;;18.55;47.23
75972;BME280;64651;47.540;19.088;2023-05-07T18:03:23;100489.59;;;18.21;47.95
75972;BME280;64651;47.540;19.088;2023-05-07T18:08:25;100494.81;;;18.06;48.46
75972;BME280;64651;47.540;19.088;2023-05-07T18:13:28;100500.47;;;17.58;49.86
75972;BME280;64651;47.540;19.088;2023-05-07T18:18:30;100502.38;;;17.40;51.12
75972;BME280;64651;47.540;19.088;2023-05-07T18:23:33;100517.66;;;17.12;51.79
75972;BME280;64651;47.540;19.088;2023-05-07T18:28:37;100523.97;;;16.95;52.48
75972;BME280;64651;47.540;19.088;2023-05-07T18:33:39;100546.34;;;16.68;53.25
75972;BME280;64651;47.540;19.088;2023-05-07T18:38:42;100556.31;;;16.69;53.49
75972;BME280;64651;47.540;19.088;2023-05-07T18:43:44;100559.94;;;16.33;54.37
75972;BME280;64651;47.540;19.088;2023-05-07T18:48:46;100574.59;;;16.11;55.36
75972;BME280;64651;47.540;19.088;2023-05-07T18:53:48;100585.78;;;16.20;55.41
75972;BME280;64651;47.540;19.088;2023-05-07T18:58:50;100602.00;;;16.40;55.00
75972;BME280;64651;47.540;19.088;2023-05-07T19:03:53;100603.06;;;16.17;54.75
75972;BME280;64651;47.540;19.088;2023-05-07T19:08:55;100617.41;;;15.97;55.46
75972;BME280;64651;47.540;19.088;2023-05-07T19:13:57;100629.94;;;16.08;61.37
75972;BME280;64651;47.540;19.088;2023-05-07T19:19:01;100656.12;;;15.74;65.42
75972;BME280;64651;47.540;19.088;2023-05-07T19:24:04;100668.22;;;15.51;67.89
75972;BME280;64651;47.540;19.088;2023-05-07T19:29:06;100677.72;;;15.31;70.58
75972;BME280;64651;47.540;19.088;2023-05-07T19:34:19;100694.81;;;15.06;71.89
75972;BME280;64651;47.540;19.088;2023-05-07T19:39:21;100706.41;;;14.89;70.19
75972;BME280;64651;47.540;19.088;2023-05-07T19:44:23;100719.00;;;14.63;68.17
75972;BME280;64651;47.540;19.088;2023-05-07T19:49:26;100728.13;;;14.45;67.67
75972;BME280;64651;47.540;19.088;2023-05-07T19:54:28;100723.84;;;14.29;66.77
75972;BME280;64651;47.540;19.088;2023-05-07T19:59:30;100746.56;;;14.07;65.73
75972;BME280;64651;47.540;19.088;2023-05-07T20:04:32;100753.00;;;13.97;65.08
75972;BME280;64651;47.540;19.088;2023-05-07T20:09:39;100760.72;;;13.76;65.59
75972;BME280;64651;47.540;19.088;2023-05-07T20:14:41;100768.53;;;13.69;66.32
75972;BME280;64651;47.540;19.088;2023-05-07T20:19:43;100768.09;;;13.57;67.23
75972;BME280;64651;47.540;19.088;2023-05-07T20:24:45;100772.06;;;13.46;66.41
75972;BME280;64651;47.540;19.088;2023-05-07T20:29:47;100783.75;;;13.33;66.85
75972;BME280;64651;47.540;19.088;2023-05-07T20:34:50;100794.62;;;13.19;67.24
75972;BME280;64651;47.540;19.088;2023-05-07T20:39:52;100805.72;;;13.14;63.78
75972;BME280;64651;47.540;19.088;2023-05-07T20:44:54;100801.69;;;12.96;63.55
75972;BME280;64651;47.540;19.088;2023-05-07T20:49:57;100790.91;;;12.95;63.16
75972;BME280;64651;47.540;19.088;2023-05-07T20:54:59;100798.75;;;12.78;64.07
75972;BME280;64651;47.540;19.088;2023-05-07T21:00:02;100802.38;;;12.73;64.48
75972;BME280;64651;47.540;19.088;2023-05-07T21:05:05;100801.59;;;12.57;64.82
75972;BME280;64651;47.540;19.088;2023-05-07T21:10:08;100806.66;;;12.35;65.79
75972;BME280;64651;47.540;19.088;2023-05-07T21:15:11;100811.06;;;12.36;65.98
75972;BME280;64651;47.540;19.088;2023-05-07T21:20:13;100811.06;;;12.36;65.87
75972;BME280;64651;47.540;19.088;2023-05-07T21:25:16;100809.97;;;12.37;65.90
75972;BME280;64651;47.540;19.088;2023-05-07T21:30:18;100830.72;;;12.19;66.02
75972;BME280;64651;47.540;19.088;2023-05-07T21:35:20;100832.41;;;12.05;66.60
75972;BME280;64651;47.540;19.088;2023-05-07T21:40:22;100835.44;;;12.04;66.50
75972;BME280;64651;47.540;19.088;2023-05-07T21:45:25;100830.47;;;12.06;66.30
75972;BME280;64651;47.540;19.088;2023-05-07T21:50:27;100837.34;;;12.03;66.74
75972;BME280;64651;47.540;19.088;2023-05-07T21:55:30;100846.47;;;11.78;67.74
75972;BME280;64651;47.540;19.088;2023-05-07T22:00:32;100848.66;;;11.66;68.39
75972;BME280;64651;47.540;19.088;2023-05-07T22:05:34;100858.03;;;11.55;68.15
75972;BME280;64651;47.540;19.088;2023-05-07T22:10:36;100855.53;;;11.44;68.89
75972;BME280;64651;47.540;19.088;2023-05-07T22:15:39;100866.56;;;11.33;69.19
75972;BME280;64651;47.540;19.088;2023-05-07T22:20:57;100868.75;;;11.31;69.59
75972;BME280;64651;47.540;19.088;2023-05-07T22:26:00;100874.53;;;11.25;69.83
75972;BME280;64651;47.540;19.088;2023-05-07T22:31:02;100871.50;;;11.26;68.45
75972;BME280;64651;47.540;19.088;2023-05-07T22:36:04;100874.19;;;11.06;68.81
75972;BME280;64651;47.540;19.088;2023-05-07T22:41:08;100873.09;;;10.97;69.36
75972;BME280;64651;47.540;19.088;2023-05-07T22:46:10;100873.63;;;10.94;69.63
75972;BME280;64651;47.540;19.088;2023-05-07T22:51:13;100878.00;;;10.85;69.38
75972;BME280;64651;47.540;19.088;2023-05-07T22:56:15;100882.06;;;10.72;69.73
75972;BME280;64651;47.540;19.088;2023-05-07T23:01:17;100883.66;;;10.58;70.48
75972;BME280;64651;47.540;19.088;2023-05-07T23:06:20;100890.41;;;10.30;71.29
75972;BME280;64651;47.540;19.088;2023-05-07T23:11:22;100892.25;;;10.25;71.91
75972;BME280;64651;47.540;19.088;2023-05-07T23:16:24;100900.91;;;10.43;71.95
75972;BME280;64651;47.540;19.088;2023-05-07T23:21:27;100901.84;;;10.64;71.03
75972;BME280;64651;47.540;19.088;2023-05-07T23:26:29;100889.19;;;10.63;70.82
75972;BME280;64651;47.540;19.088;2023-05-07T23:31:31;100896.81;;;10.46;71.03
75972;BME280;64651;47.540;19.088;2023-05-07T23:36:34;100887.66;;;10.35;71.31
75972;BME280;64651;47.540;19.088;2023-05-07T23:41:36;100889.34;;;10.41;71.06
75972;BME280;64651;47.540;19.088;2023-05-07T23:46:38;100884.69;;;10.42;70.93
75972;BME280;64651;47.540;19.088;2023-05-07T23:51:40;100890.56;;;10.61;70.31
75972;BME280;64651;47.540;19.088;2023-05-07T23:56:42;100894.81;;;10.93;69.17
